Time;durP1;ratioP1;P1;durP2;ratioP2;P2;SDS_P1;SDS_P2;PMS_P1;PMS_P2;Temp;Humidity;BMP_temperature;BMP_pressure;BME280_temperature;BME280_humidity;BME280_pressure;Samples;Min_cycle;Max_cycle;Signal;HPM_P1;HPM_P2
2020/12/26 00:02:16;;;;;;;8.73;3.90;;;;;;;2.21;74.26;100590.41;2303325;77;28807;-62
2020/12/26 00:05:18;;;;;;;5.67;3.60;;;;;;;2.21;74.18;100587.77;2303265;77;31189;-63
2020/12/26 00:08:22;;;;;;;6.78;3.75;;;;;;;2.21;74.15;100585.13;2303312;77;35428;-63
2020/12/26 00:11:24;;;;;;;7.90;3.42;;;;;;;2.22;74.12;100586.88;2303419;77;29771;-63
2020/12/26 00:14:27;;;;;;;7.03;3.45;;;;;;;2.21;74.05;100586.91;2303427;77;27705;-63
2020/12/26 00:17:30;;;;;;;6.17;3.45;;;;;;;2.19;74.06;100591.33;2303483;77;29658;-63
2020/12/26 00:20:33;;;;;;;5.70;3.08;;;;;;;2.15;74.00;100593.56;2303330;77;31153;-62
2020/12/26 00:23:36;;;;;;;8.68;3.67;;;;;;;2.11;74.04;100588.30;2303280;77;34508;-63
2020/12/26 00:26:39;;;;;;;5.62;3.20;;;;;;;2.10;74.05;100588.34;2303266;77;28856;-63
2020/12/26 00:29:41;;;;;;;4.05;3.10;;;;;;;2.09;74.10;100588.77;2303394;77;27673;-63
2020/12/26 00:32:44;;;;;;;6.90;3.70;;;;;;;2.12;74.09;100594.48;2303441;77;29741;-63
2020/12/26 00:35:47;;;;;;;6.87;3.70;;;;;;;2.12;74.09;100596.67;2303369;77;31124;-62
2020/12/26 00:38:50;;;;;;;6.87;3.47;;;;;;;2.16;74.18;100592.67;2303322;77;34183;-63
2020/12/26 00:41:52;;;;;;;6.08;3.27;;;;;;;2.18;74.14;100592.22;2303320;77;28912;-63
2020/12/26 00:44:55;;;;;;;7.12;3.45;;;;;;;2.17;74.03;100596.61;2303433;77;27647;-63
2020/12/26 00:47:58;;;;;;;6.17;3.40;;;;;;;2.17;74.06;100597.08;2303406;77;29711;-62
2020/12/26 00:51:14;;;;;;;6.10;3.08;;;;;;;2.17;74.05;100590.47;2303479;77;31130;-62
2020/12/26 00:54:36;;;;;;;4.70;2.93;;;;;;;2.14;73.96;100590.06;2180197;81;28638;-62
2020/12/26 00:57:42;;;;;;;5.55;3.10;;;;;;;2.11;73.92;100594.05;2180035;81;29785;-63
2020/12/26 01:00:43;;;;;;;4.17;2.63;;;;;;;2.08;73.94;100590.11;2180304;81;27719;-63
2020/12/26 01:03:46;;;;;;;5.30;2.90;;;;;;;2.05;73.94;100593.67;2180024;81;28834;-63
2020/12/26 01:07:02;;;;;;;7.00;3.02;;;;;;;2.02;73.89;100594.13;2179653;81;32518;-63
2020/12/26 01:10:06;;;;;;;6.53;2.98;;;;;;;2.01;73.93;100598.98;2179507;81;33095;-62
2020/12/26 01:13:08;;;;;;;5.33;2.58;;;;;;;2.04;74.19;100593.67;2179458;81;29648;-62
2020/12/26 01:16:14;;;;;;;7.33;3.17;;;;;;;2.05;74.20;100602.92;2179550;81;27681;-62
2020/12/26 01:19:18;;;;;;;6.75;3.08;;;;;;;2.06;74.13;100593.21;2179496;81;28900;-62
2020/12/26 01:22:21;;;;;;;5.95;3.12;;;;;;;2.07;74.18;100597.61;2179425;81;32055;-63
2020/12/26 01:25:23;;;;;;;9.08;3.27;;;;;;;2.07;74.19;100602.44;2179242;81;33091;-63
2020/12/26 01:28:28;;;;;;;4.37;3.20;;;;;;;2.09;74.25;100602.44;2179377;81;29164;-62
2020/12/26 01:31:52;;;;;;;7.77;3.87;;;;;;;2.14;74.25;100604.59;2342854;76;27668;-64
2020/12/26 01:35:00;;;;;;;6.95;3.40;;;;;;;2.10;74.30;100610.80;2306715;77;27849;-63
2020/12/26 01:38:03;;;;;;;6.12;3.00;;;;;;;2.09;74.25;100612.55;2306736;77;29759;-63
2020/12/26 01:41:05;;;;;;;6.40;3.83;;;;;;;2.09;74.21;100610.36;2306612;77;31113;-63
2020/12/26 01:44:08;;;;;;;5.17;3.12;;;;;;;2.10;74.35;100614.77;2306557;77;33043;-63
2020/12/26 01:47:13;;;;;;;4.12;2.83;;;;;;;2.11;74.21;100610.77;2306735;77;28529;-63
2020/12/26 01:50:15;;;;;;;5.60;3.10;;;;;;;2.13;74.31;100614.73;2306955;77;27628;-63
2020/12/26 01:53:19;;;;;;;3.42;2.65;;;;;;;2.13;74.29;100616.06;2306621;77;28825;-63
2020/12/26 01:56:23;;;;;;;7.47;3.00;;;;;;;2.13;74.33;100614.28;2306572;77;31137;-64
2020/12/26 01:59:25;;;;;;;7.47;3.37;;;;;;;2.15;74.33;100618.67;2306567;77;34023;-63
2020/12/26 02:02:28;;;;;;;5.37;3.05;;;;;;;2.15;74.29;100618.25;2306589;77;28839;-63
2020/12/26 02:05:32;;;;;;;4.15;3.17;;;;;;;2.17;74.39;100616.44;2306621;77;28164;-63
2020/12/26 02:08:37;;;;;;;8.15;3.27;;;;;;;2.17;74.32;100607.64;2306710;77;28856;-63
2020/12/26 02:11:40;;;;;;;;;;;;;;;2.15;74.27;100612.96;2309467;77;32024;-63
2020/12/26 02:14:48;;;;;;;4.75;3.20;;;;;;;2.15;74.33;100608.10;2306696;77;33285;-63
2020/12/26 02:17:50;;;;;;;4.92;3.22;;;;;;;2.10;74.36;100609.02;2306612;77;28179;-63
2020/12/26 02:20:53;;;;;;;3.75;3.02;;;;;;;2.09;74.38;100610.36;2306767;77;27592;-63
2020/12/26 02:23:55;;;;;;;4.47;2.80;;;;;;;2.10;74.33;100608.16;2306531;77;28707;-63
2020/12/26 02:26:58;;;;;;;5.70;3.33;;;;;;;2.10;74.39;100602.41;2306501;77;31551;-63
2020/12/26 02:30:00;;;;;;;5.37;3.10;;;;;;;2.12;74.37;100607.23;2304197;77;33184;-64
2020/12/26 02:33:03;;;;;;;4.85;3.05;;;;;;;2.16;74.39;100596.64;2300184;77;29391;-63
2020/12/26 02:36:06;;;;;;;9.03;3.37;;;;;;;2.16;74.31;100603.25;2300376;77;27588;-63
2020/12/26 02:39:09;;;;;;;6.15;3.25;;;;;;;2.16;74.39;100604.11;2300280;77;28954;-63
2020/12/26 02:42:13;;;;;;;7.58;3.58;;;;;;;2.18;74.36;100602.33;2299696;77;32086;-63
2020/12/26 02:45:16;;;;;;;6.20;3.70;;;;;;;2.20;74.36;100611.59;2299357;77;33081;-63
2020/12/26 02:48:18;;;;;;;5.78;3.40;;;;;;;2.18;74.34;100615.55;2299538;77;30233;-64
2020/12/26 02:51:21;;;;;;;6.10;3.83;;;;;;;2.18;74.33;100615.55;2299468;77;27717;-63
2020/12/26 02:54:23;;;;;;;6.22;4.42;;;;;;;2.19;74.31;100621.73;2299465;77;29223;-62
2020/12/26 02:57:26;;;;;;;11.95;4.45;;;;;;;2.18;74.33;100628.77;2299529;77;32092;-63
2020/12/26 03:00:28;;;;;;;6.95;3.60;;;;;;;2.17;74.26;100626.14;2299203;77;33175;-63
2020/12/26 03:03:31;;;;;;;6.70;3.55;;;;;;;2.19;74.32;100633.63;2299204;77;28865;-63
2020/12/26 03:06:34;;;;;;;4.87;2.90;;;;;;;2.20;74.27;100626.13;2299356;77;27651;-63
2020/12/26 03:09:37;;;;;;;5.17;3.37;;;;;;;2.22;74.29;100625.20;2299316;77;29699;-63
2020/12/26 03:12:39;;;;;;;6.80;3.90;;;;;;;2.23;74.29;100630.92;2299481;77;31291;-63
2020/12/26 03:15:42;;;;;;;5.97;3.98;;;;;;;2.23;74.30;100625.64;2299382;77;33118;-63
2020/12/26 03:18:46;;;;;;;6.30;3.70;;;;;;;2.23;74.29;100628.74;2299427;77;29298;-63
2020/12/26 03:21:48;;;;;;;7.00;3.80;;;;;;;2.24;74.34;100627.82;2299472;77;27788;-64
2020/12/26 03:24:52;;;;;;;8.93;4.37;;;;;;;2.25;74.30;100629.58;2299531;77;29322;-63
2020/12/26 03:27:55;;;;;;;8.78;3.87;;;;;;;2.24;74.27;100622.53;2299492;77;31127;-62
2020/12/26 03:30:58;;;;;;;7.87;4.40;;;;;;;2.24;74.24;100621.21;2299350;76;33970;-62
2020/12/26 03:34:00;;;;;;;7.12;4.00;;;;;;;2.22;74.29;100620.38;2299457;77;29383;-62
2020/12/26 03:37:04;;;;;;;7.37;4.15;;;;;;;2.22;74.33;100625.67;2299483;77;27736;-62
2020/12/26 03:40:10;;;;;;;7.08;3.77;;;;;;;2.22;74.37;100623.88;2299505;77;30193;-63
2020/12/26 03:43:13;;;;;;;6.50;3.50;;;;;;;2.25;74.34;100623.86;2299419;77;31108;-62
2020/12/26 03:46:16;;;;;;;7.42;3.90;;;;;;;2.30;74.35;100629.09;2299423;77;33111;-62
2020/12/26 03:49:18;;;;;;;9.20;4.70;;;;;;;2.34;74.26;100624.64;2299323;77;28912;-62
2020/12/26 03:52:20;;;;;;;6.08;4.50;;;;;;;2.36;74.22;100636.97;2299415;77;27669;-62
2020/12/26 03:55:23;;;;;;;6.90;4.58;;;;;;;2.39;74.18;100636.05;2299473;77;29056;-63
2020/12/26 03:58:25;;;;;;;6.40;4.22;;;;;;;2.39;74.10;100636.95;2299455;77;32128;-63
2020/12/26 04:01:28;;;;;;;8.48;4.65;;;;;;;2.38;74.06;100639.16;2299385;77;33354;-63
2020/12/26 04:04:30;;;;;;;8.08;4.10;;;;;;;2.37;74.14;100637.83;2299462;77;29784;-63
2020/12/26 04:07:33;;;;;;;9.03;4.50;;;;;;;2.39;74.16;100642.23;2299565;77;28168;-62
2020/12/26 04:10:36;;;;;;;7.28;4.80;;;;;;;2.38;74.00;100647.52;2299359;77;28877;-62
2020/12/26 04:13:39;;;;;;;5.45;3.85;;;;;;;2.34;74.04;100651.97;2299382;77;31566;-62
2020/12/26 04:16:41;;;;;;;7.00;4.15;;;;;;;2.31;74.01;100654.64;2299286;77;32728;-63
2020/12/26 04:19:44;;;;;;;8.65;4.10;;;;;;;2.27;74.00;100655.55;2299241;77;29822;-63
2020/12/26 04:22:47;;;;;;;6.10;3.95;;;;;;;2.24;74.02;100663.51;2299225;77;27696;-63
2020/12/26 04:25:49;;;;;;;7.45;3.65;;;;;;;2.23;74.05;100659.14;2299231;77;28783;-63
2020/12/26 04:28:52;;;;;;;7.58;4.17;;;;;;;2.24;74.07;100660.86;2299109;77;31188;-63
2020/12/26 04:31:54;;;;;;;7.35;4.33;;;;;;;2.26;74.04;100665.69;2303700;76;33112;-62
2020/12/26 04:34:56;;;;;;;8.10;4.03;;;;;;;2.27;74.04;100659.52;2305613;77;29400;-63
2020/12/26 04:37:59;;;;;;;6.67;4.00;;;;;;;2.28;74.11;100664.81;2305697;77;27629;-62
2020/12/26 04:41:02;;;;;;;6.40;3.55;;;;;;;2.31;74.12;100661.25;2305615;77;28799;-63
2020/12/26 04:44:06;;;;;;;6.22;3.27;;;;;;;2.34;74.02;100662.55;2305590;77;31123;-63
2020/12/26 04:47:12;;;;;;;9.20;4.00;;;;;;;2.34;73.99;100658.58;2305582;77;33084;-63
2020/12/26 04:50:15;;;;;;;5.30;3.10;;;;;;;2.32;73.90;100663.00;2305695;77;29100;-63
2020/12/26 04:53:20;;;;;;;6.75;3.67;;;;;;;2.32;73.91;100664.78;2305691;77;27660;-63
2020/12/26 04:56:25;;;;;;;8.55;3.90;;;;;;;2.26;73.82;100663.05;2305869;77;29021;-63
2020/12/26 04:59:27;;;;;;;8.85;4.03;;;;;;;2.26;73.93;100667.02;2305506;77;32468;-63
2020/12/26 05:02:36;;;;;;;8.05;3.42;;;;;;;2.21;73.82;100668.39;2305549;77;33565;-63
2020/12/26 05:05:41;;;;;;;7.12;2.45;;;;;;;2.21;73.87;100671.03;2305719;77;29806;-63
2020/12/26 05:08:44;;;;;;;8.33;2.90;;;;;;;2.23;73.90;100673.68;2305965;77;27598;-63
2020/12/26 05:11:56;;;;;;;9.20;3.65;;;;;;;2.25;73.94;100671.44;2305631;77;29590;-63
2020/12/26 05:15:03;;;;;;;7.42;3.30;;;;;;;2.29;73.84;100681.53;2305534;77;31209;-63
2020/12/26 05:18:06;;;;;;;5.85;2.77;;;;;;;2.30;73.75;100683.75;2305572;77;33185;-63
2020/12/26 05:21:08;;;;;;;6.42;3.30;;;;;;;2.31;73.72;100676.25;2305670;77;29491;-62
2020/12/26 05:24:12;;;;;;;4.75;2.75;;;;;;;2.33;73.64;100675.77;2305736;77;27654;-63
2020/12/26 05:27:16;;;;;;;6.00;2.42;;;;;;;2.31;73.57;100668.32;2305751;77;28870;-63
2020/12/26 05:30:19;;;;;;;5.58;2.45;;;;;;;2.32;73.54;100679.33;2304984;77;31570;-63
2020/12/26 05:33:22;;;;;;;6.78;2.83;;;;;;;2.33;73.44;100679.73;2299431;77;34014;-63
2020/12/26 05:36:29;;;;;;;6.75;2.70;;;;;;;2.28;73.22;100674.06;2299338;77;28914;-64
2020/12/26 05:39:34;;;;;;;4.20;2.30;;;;;;;2.24;72.93;100674.97;2299411;77;27642;-64
2020/12/26 05:42:41;;;;;;;6.65;2.87;;;;;;;2.19;72.93;100683.38;2299056;77;30862;-64
2020/12/26 05:45:44;;;;;;;4.97;1.90;;;;;;;2.19;72.77;100682.06;2297028;77;32097;-64
2020/12/26 05:48:47;;;;;;;6.75;2.35;;;;;;;2.20;72.81;100682.95;2299353;77;33165;-64
2020/12/26 05:51:53;;;;;;;6.80;2.30;;;;;;;2.22;72.63;100684.68;2299223;77;28846;-63
2020/12/26 05:54:55;;;;;;;5.65;1.82;;;;;;;2.21;72.62;100690.86;2299496;77;27687;-64
2020/12/26 05:57:58;;;;;;;3.27;1.77;;;;;;;2.20;72.27;100694.84;2299339;77;29943;-63
2020/12/26 06:01:02;;;;;;;2.42;1.72;;;;;;;2.16;72.16;100691.79;2299239;77;31105;-63
2020/12/26 06:04:08;;;;;;;5.28;1.95;;;;;;;2.15;72.31;100697.97;2299446;77;34443;-63
2020/12/26 06:07:11;;;;;;;4.00;2.30;;;;;;;2.13;72.17;100690.92;2299260;77;29775;-63
2020/12/26 06:10:13;;;;;;;3.00;1.77;;;;;;;2.13;72.16;100697.53;2299438;77;28123;-64
2020/12/26 06:13:18;;;;;;;3.80;2.25;;;;;;;2.10;72.17;100698.88;2299290;77;28758;-63
2020/12/26 06:16:24;;;;;;;8.98;2.87;;;;;;;2.10;72.22;100702.83;2299533;77;31122;-63
2020/12/26 06:19:31;;;;;;;6.15;2.60;;;;;;;2.07;72.03;100706.81;2299454;77;33092;-64
2020/12/26 06:22:48;;;;;;;5.85;2.83;;;;;;;2.04;72.05;100716.12;2299517;77;28841;-62
2020/12/26 06:25:55;;;;;;;4.60;2.72;;;;;;;2.03;71.94;100711.72;2299571;77;27725;-63
2020/12/26 06:28:58;;;;;;;3.25;2.50;;;;;;;2.01;72.00;100714.81;2299462;77;29797;-62
2020/12/26 06:32:01;;;;;;;4.40;2.30;;;;;;;2.01;71.89;100724.48;2299460;76;32070;-62
2020/12/26 06:35:04;;;;;;;7.45;2.90;;;;;;;1.98;71.86;100722.76;2299331;77;33109;-63
2020/12/26 06:38:16;;;;;;;7.50;3.50;;;;;;;1.95;71.62;100732.92;2299417;77;29655;-63
2020/12/26 06:41:18;;;;;;;6.17;2.77;;;;;;;1.96;71.91;100740.38;2299553;77;28128;-62
2020/12/26 06:44:26;;;;;;;9.15;2.92;;;;;;;1.96;71.65;100740.38;2299426;77;28879;-63
2020/12/26 06:47:36;;;;;;;4.35;2.72;;;;;;;1.93;71.76;100743.94;2295907;77;31008;-63
2020/12/26 06:50:39;;;;;;;4.10;2.50;;;;;;;1.94;71.70;100748.33;2299230;77;34098;-63
2020/12/26 06:53:42;;;;;;;4.37;2.70;;;;;;;1.93;71.46;100747.00;2299305;77;29151;-62
2020/12/26 06:56:46;;;;;;;7.33;2.58;;;;;;;1.92;71.78;100747.47;2299400;77;27585;-62
2020/12/26 06:59:50;;;;;;;5.67;2.67;;;;;;;1.94;71.75;100746.12;2299402;77;28723;-63
2020/12/26 07:03:17;;;;;;;6.30;3.00;;;;;;;1.94;71.66;100754.94;2299485;77;31568;-63
2020/12/26 07:06:38;;;;;;;5.00;2.67;;;;;;;1.96;71.89;100754.48;2299321;77;34035;-63
2020/12/26 07:09:46;;;;;;;5.28;2.42;;;;;;;1.96;71.72;100761.52;2299398;77;29136;-63
2020/12/26 07:12:48;;;;;;;6.10;2.42;;;;;;;1.97;71.76;100766.81;2299482;77;27613;-63
2020/12/26 07:15:50;;;;;;;5.12;2.90;;;;;;;1.98;71.56;100775.60;2299410;77;28858;-63
2020/12/26 07:18:53;;;;;;;3.65;2.35;;;;;;;1.97;71.62;100772.10;2299395;77;31120;-64
2020/12/26 07:22:06;;;;;;;8.15;2.08;;;;;;;1.99;71.39;100776.04;2299369;77;33117;-64
2020/12/26 07:25:08;;;;;;;7.00;2.58;;;;;;;1.99;71.35;100781.33;2299452;77;29187;-63
2020/12/26 07:28:13;;;;;;;4.30;2.55;;;;;;;1.98;71.20;100783.53;2299483;77;27647;-64
2020/12/26 07:31:18;;;;;;;6.17;2.52;;;;;;;1.96;71.11;100784.88;2299449;75;28688;-63
2020/12/26 07:34:40;;;;;;;3.83;2.20;;;;;;;1.96;71.06;100795.45;2299360;77;31179;-63
2020/12/26 07:37:45;;;;;;;5.80;2.47;;;;;;;1.97;70.93;100804.23;2299368;77;33086;-63
2020/12/26 07:40:48;;;;;;;6.17;2.37;;;;;;;1.95;70.82;100809.54;2299492;77;29076;-63
2020/12/26 07:43:51;;;;;;;10.30;4.72;;;;;;;1.94;70.76;100810.42;2299557;77;27650;-62
2020/12/26 07:46:57;;;;;;;14.28;6.67;;;;;;;1.92;70.77;100806.91;2299365;77;29702;-63
2020/12/26 07:50:00;;;;;;;13.32;5.95;;;;;;;1.92;70.49;100808.23;2299424;77;31191;-63
2020/12/26 07:53:08;;;;;;;20.77;8.98;;;;;;;1.91;70.45;100817.47;2299297;77;33107;-64
2020/12/26 07:56:11;;;;;;;8.83;4.70;;;;;;;1.89;70.42;100817.95;2299472;77;29870;-62
2020/12/26 07:59:14;;;;;;;11.30;5.65;;;;;;;1.90;70.29;100822.34;2267923;77;28359;-62
2020/12/26 08:02:17;;;;;;;13.95;7.92;;;;;;;1.88;70.23;100821.47;2299369;77;28812;-62
2020/12/26 08:05:24;;;;;;;17.57;6.45;;;;;;;1.89;70.50;100828.52;2299331;77;31112;-63
2020/12/26 08:08:27;;;;;;;10.88;5.95;;;;;;;1.91;70.47;100825.39;2299256;77;34532;-62
2020/12/26 08:15:30;;;;;;;15.38;8.38;;;;;;;1.93;70.36;100826.27;2144040;82;27643;-62
2020/12/26 08:18:43;;;;;;;16.53;9.10;;;;;;;2.01;70.11;100832.41;2343250;76;27636;-63
2020/12/26 08:21:46;;;;;;;17.00;7.10;;;;;;;1.96;70.16;100833.76;2303746;77;27681;-63
2020/12/26 08:24:50;;;;;;;12.95;4.90;;;;;;;1.99;69.92;100838.59;2303628;77;29328;-62
2020/12/26 08:27:54;;;;;;;13.20;6.50;;;;;;;2.00;69.88;100846.92;2303736;77;31120;-63
2020/12/26 08:30:57;;;;;;;21.57;10.90;;;;;;;1.98;69.58;100844.30;2303599;77;33192;-65
2020/12/26 08:34:20;;;;;;;18.05;8.00;;;;;;;2.00;69.92;100849.57;2246121;77;28545;-63
2020/12/26 08:37:32;;;;;;;13.38;6.92;;;;;;;1.99;69.77;100843.42;2303815;77;28210;-63
2020/12/26 08:40:37;;;;;;;11.75;5.12;;;;;;;1.99;69.98;100840.78;2303601;77;28795;-62
2020/12/26 08:43:41;;;;;;;9.93;4.65;;;;;;;2.00;69.62;100840.32;2303670;77;32131;-62
2020/12/26 08:46:47;;;;;;;7.97;3.87;;;;;;;2.00;69.85;100846.92;2303695;77;33989;-64
2020/12/26 08:49:51;;;;;;;10.65;5.35;;;;;;;2.05;69.87;100847.79;2303577;77;28919;-63
2020/12/26 08:53:07;;;;;;;21.15;10.18;;;;;;;2.07;69.74;100855.27;2303672;77;27649;-63
2020/12/26 08:56:10;;;;;;;26.30;11.75;;;;;;;2.10;69.51;100859.22;2303558;77;29328;-63
2020/12/26 08:59:13;;;;;;;12.45;4.47;;;;;;;2.09;69.32;100864.94;2303498;77;31181;-63
2020/12/26 09:02:16;;;;;;;17.75;6.62;;;;;;;2.10;69.21;100871.98;2303586;77;34089;-63
2020/12/26 09:05:31;;;;;;;11.20;3.10;;;;;;;2.10;68.86;100860.08;2303653;77;28851;-64
2020/12/26 09:08:35;;;;;;;16.77;7.22;;;;;;;2.07;68.97;100869.34;2303796;77;27625;-62
2020/12/26 09:11:38;;;;;;;16.50;6.08;;;;;;;2.09;69.23;100867.58;2303446;77;29694;-63
2020/12/26 09:14:40;;;;;;;9.68;4.83;;;;;;;2.12;69.19;100865.38;2303480;77;32055;-62
2020/12/26 09:17:43;;;;;;;6.87;3.85;;;;;;;2.14;69.00;100860.97;2305731;77;33105;-64
2020/12/26 09:20:55;;;;;;;10.25;4.55;;;;;;;2.16;69.13;100863.59;2307652;77;28864;-63
2020/12/26 09:23:58;;;;;;;9.08;4.85;;;;;;;2.19;69.22;100859.16;2307840;77;27696;-63
2020/12/26 09:27:01;;;;;;;18.55;6.90;;;;;;;2.26;69.04;100865.28;2307788;77;28828;-63
2020/12/26 09:30:05;;;;;;;6.65;3.35;;;;;;;2.27;69.13;100867.04;2306970;77;32022;-62
2020/12/26 09:33:08;;;;;;;19.70;8.93;;;;;;;2.33;68.97;100870.08;2307099;77;33079;-63
2020/12/26 09:36:17;;;;;;;25.55;9.08;;;;;;;2.38;69.05;100873.59;2306956;77;28849;-63
2020/12/26 09:39:19;;;;;;;19.62;6.55;;;;;;;2.43;68.99;100871.80;2307034;77;27642;-63
2020/12/26 09:42:26;;;;;;;14.13;5.83;;;;;;;2.51;68.93;100870.42;2306876;77;28801;-64
2020/12/26 09:45:29;;;;;;;9.23;4.60;;;;;;;2.56;68.51;100863.34;2306934;77;31203;-63
2020/12/26 09:48:32;;;;;;;13.30;5.72;;;;;;;2.60;68.42;100867.70;2306922;77;33979;-63
2020/12/26 09:51:35;;;;;;;9.70;3.72;;;;;;;2.64;68.50;100871.22;2306937;77;28851;-64
2020/12/26 09:54:37;;;;;;;11.28;5.42;;;;;;;2.68;68.24;100876.47;2307022;77;27678;-63
2020/12/26 09:57:40;;;;;;;34.23;12.43;;;;;;;2.74;68.22;100878.18;2306673;77;28826;-63
2020/12/26 10:00:42;;;;;;;10.45;3.98;;;;;;;2.81;68.16;100867.09;2306689;77;31168;-63
2020/12/26 10:03:47;;;;;;;13.30;5.65;;;;;;;2.85;67.60;100867.05;2306734;77;33122;-63
2020/12/26 10:06:49;;;;;;;;;;;;;;;2.86;67.75;100855.58;2309647;77;29735;-63
2020/12/26 10:09:52;;;;;;;12.78;5.97;;;;;;;2.90;67.73;100859.06;2306898;77;27771;-63
2020/12/26 10:12:55;;;;;;;31.42;13.50;;;;;;;2.97;67.90;100859.92;2306842;77;28785;-63
2020/12/26 10:15:57;;;;;;;18.40;7.10;;;;;;;3.03;67.72;100870.43;2306776;77;31117;-63
2020/12/26 10:19:00;;;;;;;21.10;9.50;;;;;;;3.08;67.71;100865.98;2303241;77;33177;-63
2020/12/26 10:22:03;;;;;;;13.58;7.30;;;;;;;3.10;67.32;100865.52;2302777;77;28832;-64
2020/12/26 10:25:06;;;;;;;16.67;5.65;;;;;;;3.14;67.37;100863.28;2302829;77;27687;-63
2020/12/26 10:28:09;;;;;;;22.15;9.78;;;;;;;3.18;67.18;100864.98;2302867;77;28810;-63
2020/12/26 10:31:12;;;;;;;7.80;4.50;;;;;;;3.23;67.30;100860.95;2302783;77;31132;-63
2020/12/26 10:34:14;;;;;;;11.60;4.62;;;;;;;3.29;67.23;100857.40;2302707;77;34019;-62
2020/12/26 10:37:17;;;;;;;11.25;5.10;;;;;;;3.32;66.68;100859.98;2302830;77;29712;-63
2020/12/26 10:40:19;;;;;;;17.15;6.22;;;;;;;3.33;67.01;100857.77;2302825;77;27615;-62
2020/12/26 10:43:22;;;;;;;11.83;4.47;;;;;;;3.34;66.77;100864.83;2302712;77;28783;-62
2020/12/26 10:46:26;;;;;;;13.43;4.60;;;;;;;3.34;66.66;100864.39;2302697;77;32091;-63
2020/12/26 10:49:29;;;;;;;19.15;7.65;;;;;;;3.36;66.36;100866.16;2302754;77;33103;-62
2020/12/26 10:52:32;;;;;;;25.82;12.00;;;;;;;3.38;66.55;100872.31;2302681;77;28927;-62
2020/12/26 10:55:35;;;;;;;13.28;4.95;;;;;;;3.36;66.21;100872.77;2302809;77;27677;-62
2020/12/26 10:58:39;;;;;;;10.98;5.12;;;;;;;3.37;66.32;100871.88;2302774;77;28598;-62
2020/12/26 11:01:42;;;;;;;19.27;6.37;;;;;;;3.38;66.35;100863.91;2302730;77;31124;-62
2020/12/26 11:04:45;;;;;;;18.77;6.60;;;;;;;3.41;66.42;100857.26;2302556;77;33093;-64
2020/12/26 11:07:47;;;;;;;24.55;11.45;;;;;;;3.45;66.48;100859.41;2302645;77;29769;-64
2020/12/26 11:10:50;;;;;;;16.35;6.90;;;;;;;3.48;66.37;100858.06;2302915;77;27625;-63
2020/12/26 11:13:53;;;;;;;13.60;5.70;;;;;;;3.53;66.66;100866.84;2302847;77;28880;-64
2020/12/26 11:16:56;;;;;;;14.38;6.55;;;;;;;3.57;66.35;100863.24;2302614;75;31198;-62
2020/12/26 11:19:59;;;;;;;14.45;5.12;;;;;;;3.60;66.49;100861.03;2303259;77;33946;-64
2020/12/26 11:23:02;;;;;;;11.85;4.58;;;;;;;3.65;65.99;100866.70;2276986;77;29787;-64
2020/12/26 11:26:04;;;;;;;12.60;5.78;;;;;;;3.68;66.11;100859.61;2303313;77;27796;-62
2020/12/26 11:29:07;;;;;;;13.05;5.95;;;;;;;3.71;65.91;100868.39;2303367;77;29908;-64
2020/12/26 11:32:09;;;;;;;11.97;5.22;;;;;;;3.71;66.00;100863.55;2303091;77;31306;-63
2020/12/26 11:35:12;;;;;;;11.05;4.80;;;;;;;3.72;65.91;100867.95;2303232;77;33547;-63
2020/12/26 11:38:14;;;;;;;10.23;5.20;;;;;;;3.72;65.73;100871.94;2303305;77;28907;-64
2020/12/26 11:41:20;;;;;;;10.63;4.65;;;;;;;3.75;65.85;100870.55;2303427;77;27650;-63
2020/12/26 11:44:23;;;;;;;22.07;11.18;;;;;;;3.78;65.96;100870.08;2302810;77;28892;-63
2020/12/26 11:47:27;;;;;;;11.80;5.47;;;;;;;3.80;65.55;100862.09;2303089;77;31627;-64
2020/12/26 11:50:32;;;;;;;9.90;4.60;;;;;;;3.76;65.10;100867.89;2303474;77;33172;-64
2020/12/26 11:53:36;;;;;;;20.00;7.72;;;;;;;3.74;65.74;100857.76;2303481;77;29484;-62
2020/12/26 11:56:39;;;;;;;25.72;10.60;;;;;;;3.76;65.68;100859.94;2303425;77;27685;-63
2020/12/26 11:59:42;;;;;;;21.77;15.68;;;;;;;3.78;65.58;100860.80;2303439;77;29678;-63
2020/12/26 12:02:44;;;;;;;41.02;16.25;;;;;;;3.81;65.58;100857.23;2303389;77;31050;-63
2020/12/26 12:05:47;;;;;;;70.28;24.10;;;;;;;3.80;65.30;100860.34;2303430;77;33918;-63
2020/12/26 12:08:49;;;;;;;20.48;7.58;;;;;;;3.83;65.61;100862.50;2303459;77;28850;-63
2020/12/26 12:11:56;;;;;;;19.73;7.53;;;;;;;3.83;65.03;100859.84;2303436;77;27673;-64
2020/12/26 12:15:39;;;;;;;15.98;6.67;;;;;;;3.79;65.08;100847.98;2303437;77;28809;-62
2020/12/26 12:18:48;;;;;;;15.63;7.70;;;;;;;3.77;65.19;100859.05;2303132;75;32264;-63
2020/12/26 12:21:50;;;;;;;28.27;10.28;;;;;;;3.79;65.39;100851.06;2303325;77;34052;-63
2020/12/26 12:24:53;;;;;;;14.75;6.75;;;;;;;3.81;65.09;100861.20;2303390;77;29611;-62
2020/12/26 12:27:56;;;;;;;12.68;4.87;;;;;;;3.77;64.96;100851.10;2303422;77;27641;-62
2020/12/26 12:30:59;;;;;;;15.50;6.10;;;;;;;3.75;64.52;100857.30;2303358;77;28886;-63
2020/12/26 12:34:01;;;;;;;13.72;5.55;;;;;;;3.69;64.43;100862.69;2303394;77;31113;-63
2020/12/26 12:37:04;;;;;;;11.73;4.25;;;;;;;3.61;64.46;100861.00;2303390;77;34163;-64
2020/12/26 12:40:07;;;;;;;16.48;6.35;;;;;;;3.56;64.49;100863.27;2303488;77;29026;-63
2020/12/26 12:43:10;;;;;;;16.00;7.17;;;;;;;3.54;64.84;100863.30;2303601;77;27665;-64
2020/12/26 12:46:12;;;;;;;14.45;6.70;;;;;;;3.54;64.67;100860.66;2303398;77;28810;-63
2020/12/26 12:49:15;;;;;;;11.60;5.15;;;;;;;3.55;64.79;100858.87;2303378;77;31189;-64
2020/12/26 12:52:19;;;;;;;12.80;5.50;;;;;;;3.56;64.79;100859.30;2303323;77;33941;-62
2020/12/26 12:55:21;;;;;;;11.25;4.83;;;;;;;3.57;64.66;100852.64;2303385;77;29780;-63
2020/12/26 12:58:24;;;;;;;14.43;5.05;;;;;;;3.57;64.58;100846.02;2303465;77;27625;-63
2020/12/26 13:01:27;;;;;;;14.03;6.15;;;;;;;3.57;64.45;100846.48;2303491;77;28807;-63
2020/12/26 13:04:29;;;;;;;14.60;5.12;;;;;;;3.57;64.44;100843.37;2303536;77;31199;-63
2020/12/26 13:07:32;;;;;;;10.58;5.08;;;;;;;3.55;64.02;100843.87;2303555;77;33093;-63
2020/12/26 13:10:35;;;;;;;12.98;5.10;;;;;;;3.54;64.05;100851.81;2303601;77;29794;-62
2020/12/26 13:13:38;;;;;;;8.75;4.75;;;;;;;3.54;64.35;100849.16;2303653;77;27792;-64
2020/12/26 13:16:40;;;;;;;20.20;6.62;;;;;;;3.55;64.22;100845.62;2303529;77;29790;-63
2020/12/26 13:19:43;;;;;;;13.05;5.05;;;;;;;3.57;64.46;100849.13;2302869;76;32083;-63
2020/12/26 13:22:46;;;;;;;7.92;4.35;;;;;;;3.57;64.25;100844.70;2302659;77;33104;-63
2020/12/26 13:25:48;;;;;;;9.00;4.35;;;;;;;3.57;64.08;100851.32;2302888;77;29165;-64
2020/12/26 13:28:51;;;;;;;8.35;3.08;;;;;;;3.58;64.42;100854.86;2302915;77;27679;-63
2020/12/26 13:31:54;;;;;;;11.63;4.28;;;;;;;3.59;64.20;100862.78;2302841;77;28784;-64
2020/12/26 13:34:56;;;;;;;8.00;3.30;;;;;;;3.58;63.86;100855.73;2302771;77;31167;-64
2020/12/26 13:37:59;;;;;;;8.58;3.42;;;;;;;3.56;63.78;100850.89;2302800;77;33646;-63
2020/12/26 13:41:01;;;;;;;12.05;5.17;;;;;;;3.54;63.54;100850.48;2302780;77;29088;-64
2020/12/26 13:44:04;;;;;;;13.80;3.50;;;;;;;3.50;63.47;100849.66;2302824;77;27600;-64
2020/12/26 13:47:07;;;;;;;6.12;3.20;;;;;;;3.46;63.17;100856.77;2302710;77;28875;-63
2020/12/26 13:50:10;;;;;;;8.98;5.47;;;;;;;3.41;63.46;100855.94;2302639;77;32083;-64
2020/12/26 13:53:18;;;;;;;8.28;3.72;;;;;;;3.39;63.57;100855.07;2302634;77;33135;-63
2020/12/26 13:56:23;;;;;;;7.00;3.72;;;;;;;3.37;63.54;100858.64;2299831;77;27604;-62
2020/12/26 13:59:29;;;;;;;10.40;4.22;;;;;;;3.34;63.68;100856.88;2302827;77;27713;-62
2020/12/26 14:02:32;;;;;;;12.98;4.55;;;;;;;3.31;63.27;100860.45;2302826;77;28819;-63
2020/12/26 14:05:35;;;;;;;26.30;9.88;;;;;;;3.22;62.98;100861.88;2302729;77;31157;-63
2020/12/26 14:08:38;;;;;;;11.45;4.75;;;;;;;3.13;62.50;100861.53;2302713;77;34054;-64
2020/12/26 14:11:46;;;;;;;11.65;5.20;;;;;;;3.06;62.59;100857.17;2302712;77;29248;-63
2020/12/26 14:14:56;;;;;;;16.70;7.30;;;;;;;2.99;62.65;100859.43;2303026;77;27549;-63
2020/12/26 14:18:05;;;;;;;29.95;12.50;;;;;;;2.92;62.34;100858.61;2302686;77;30257;-63
2020/12/26 14:21:11;;;;;;;17.90;8.28;;;;;;;2.82;62.38;100860.45;2271692;77;30971;-62
2020/12/26 14:24:13;;;;;;;12.33;5.22;;;;;;;2.73;62.58;100852.61;2302651;77;33749;-62
2020/12/26 14:27:16;;;;;;;11.20;4.92;;;;;;;2.65;62.28;100865.04;2302762;77;30038;-63